sensor_id;sensor_type;location;lat;lon;timestamp;P1;durP1;ratioP1;P2;durP2;ratioP2
6378;SDS011;3222;48.858;10.128;2024-02-14T00:02:09;2.57;;;1.70;;
6378;SDS011;3222;48.858;10.128;2024-02-14T00:04:35;1.53;;;1.50;;
6378;SDS011;3222;48.858;10.128;2024-02-14T00:07:01;4.67;;;1.63;;
6378;SDS011;3222;48.858;10.128;2024-02-14T00:09:26;1.60;;;1.50;;
6378;SDS011;3222;48.858;10.128;2024-02-14T00:11:52;1.80;;;1.70;;
6378;SDS011;3222;48.858;10.128;2024-02-14T00:14:18;2.30;;;1.60;;
6378;SDS011;3222;48.858;10.128;2024-02-14T00:16:46;1.60;;;1.50;;
6378;SDS011;3222;48.858;10.128;2024-02-14T00:19:12;2.00;;;1.80;;
6378;SDS011;3222;48.858;10.128;2024-02-14T00:21:39;2.17;;;1.73;;
6378;SDS011;3222;48.858;10.128;2024-02-14T00:24:04;4.77;;;2.03;;
6378;SDS011;3222;48.858;10.128;2024-02-14T00:26:30;2.23;;;1.70;;
6378;SDS011;3222;48.858;10.128;2024-02-14T00:28:56;5.67;;;2.10;;
6378;SDS011;3222;48.858;10.128;2024-02-14T00:31:22;2.97;;;2.20;;
6378;SDS011;3222;48.858;10.128;2024-02-14T00:33:47;3.23;;;2.17;;
6378;SDS011;3222;48.858;10.128;2024-02-14T00:36:13;4.30;;;2.33;;
6378;SDS011;3222;48.858;10.128;2024-02-14T00:38:39;4.17;;;2.63;;
6378;SDS011;3222;48.858;10.128;2024-02-14T00:41:05;2.67;;;2.37;;
6378;SDS011;3222;48.858;10.128;2024-02-14T00:43:31;3.27;;;2.17;;
6378;SDS011;3222;48.858;10.128;2024-02-14T00:45:56;3.37;;;2.17;;
6378;SDS011;3222;48.858;10.128;2024-02-14T00:48:22;3.47;;;2.40;;
6378;SDS011;3222;48.858;10.128;2024-02-14T00:50:48;2.60;;;2.27;;
6378;SDS011;3222;48.858;10.128;2024-02-14T00:53:14;3.40;;;2.20;;
6378;SDS011;3222;48.858;10.128;2024-02-14T00:55:39;3.23;;;2.10;;
6378;SDS011;3222;48.858;10.128;2024-02-14T00:58:06;3.97;;;2.47;;
6378;SDS011;3222;48.858;10.128;2024-02-14T01:00:31;3.03;;;2.10;;
6378;SDS011;3222;48.858;10.128;2024-02-14T01:02:57;2.37;;;2.17;;
6378;SDS011;3222;48.858;10.128;2024-02-14T01:05:23;3.73;;;2.20;;
6378;SDS011;3222;48.858;10.128;2024-02-14T01:07:49;4.97;;;2.30;;
6378;SDS011;3222;48.858;10.128;2024-02-14T01:10:16;2.27;;;2.07;;
6378;SDS011;3222;48.858;10.128;2024-02-14T01:12:41;4.40;;;2.30;;
6378;SDS011;3222;48.858;10.128;2024-02-14T01:15:07;4.53;;;2.30;;
6378;SDS011;3222;48.858;10.128;2024-02-14T01:17:33;2.27;;;2.00;;
6378;SDS011;3222;48.858;10.128;2024-02-14T01:20:01;2.20;;;2.00;;
6378;SDS011;3222;48.858;10.128;2024-02-14T01:22:28;2.53;;;1.90;;
6378;SDS011;3222;48.858;10.128;2024-02-14T01:24:53;2.93;;;2.10;;
6378;SDS011;3222;48.858;10.128;2024-02-14T01:27:19;3.37;;;2.30;;
6378;SDS011;3222;48.858;10.128;2024-02-14T01:29:48;4.17;;;2.23;;
6378;SDS011;3222;48.858;10.128;2024-02-14T01:32:14;4.50;;;2.30;;
6378;SDS011;3222;48.858;10.128;2024-02-14T01:34:39;2.37;;;1.97;;
6378;SDS011;3222;48.858;10.128;2024-02-14T01:37:07;2.83;;;2.30;;
6378;SDS011;3222;48.858;10.128;2024-02-14T01:39:35;5.60;;;2.37;;
6378;SDS011;3222;48.858;10.128;2024-02-14T01:42:00;3.10;;;2.43;;
6378;SDS011;3222;48.858;10.128;2024-02-14T01:44:30;3.37;;;2.40;;
6378;SDS011;3222;48.858;10.128;2024-02-14T01:46:56;3.53;;;2.30;;
6378;SDS011;3222;48.858;10.128;2024-02-14T01:49:22;4.30;;;2.23;;
6378;SDS011;3222;48.858;10.128;2024-02-14T01:51:47;4.30;;;2.77;;
6378;SDS011;3222;48.858;10.128;2024-02-14T01:54:13;3.47;;;2.20;;
6378;SDS011;3222;48.858;10.128;2024-02-14T01:56:40;3.10;;;2.30;;
6378;SDS011;3222;48.858;10.128;2024-02-14T01:59:07;3.93;;;2.43;;
6378;SDS011;3222;48.858;10.128;2024-02-14T02:01:35;2.73;;;2.50;;
6378;SDS011;3222;48.858;10.128;2024-02-14T02:04:00;3.33;;;2.40;;
6378;SDS011;3222;48.858;10.128;2024-02-14T02:06:26;3.23;;;2.50;;
6378;SDS011;3222;48.858;10.128;2024-02-14T02:08:52;3.77;;;2.57;;
6378;SDS011;3222;48.858;10.128;2024-02-14T02:11:18;4.60;;;2.50;;
6378;SDS011;3222;48.858;10.128;2024-02-14T02:13:44;3.33;;;2.53;;
6378;SDS011;3222;48.858;10.128;2024-02-14T02:16:09;3.37;;;2.40;;
6378;SDS011;3222;48.858;10.128;2024-02-14T02:18:35;3.53;;;2.40;;
6378;SDS011;3222;48.858;10.128;2024-02-14T02:21:02;4.33;;;2.53;;
6378;SDS011;3222;48.858;10.128;2024-02-14T02:23:32;4.37;;;2.50;;
6378;SDS011;3222;48.858;10.128;2024-02-14T02:26:01;4.53;;;2.30;;
6378;SDS011;3222;48.858;10.128;2024-02-14T02:28:27;2.80;;;2.50;;
6378;SDS011;3222;48.858;10.128;2024-02-14T02:30:53;5.20;;;2.50;;
6378;SDS011;3222;48.858;10.128;2024-02-14T02:33:21;4.90;;;2.40;;
6378;SDS011;3222;48.858;10.128;2024-02-14T02:39:28;3.30;;;2.47;;
6378;SDS011;3222;48.858;10.128;2024-02-14T02:41:54;6.83;;;2.67;;
6378;SDS011;3222;48.858;10.128;2024-02-14T02:44:22;3.70;;;2.50;;
6378;SDS011;3222;48.858;10.128;2024-02-14T02:46:47;2.93;;;2.20;;
6378;SDS011;3222;48.858;10.128;2024-02-14T02:49:13;6.13;;;2.63;;
6378;SDS011;3222;48.858;10.128;2024-02-14T02:51:39;5.30;;;2.30;;
6378;SDS011;3222;48.858;10.128;2024-02-14T02:54:05;3.03;;;2.60;;
6378;SDS011;3222;48.858;10.128;2024-02-14T02:56:32;2.50;;;2.30;;
6378;SDS011;3222;48.858;10.128;2024-02-14T02:58:58;3.73;;;2.10;;
6378;SDS011;3222;48.858;10.128;2024-02-14T03:01:24;2.73;;;2.40;;
6378;SDS011;3222;48.858;10.128;2024-02-14T03:03:53;2.70;;;2.13;;
6378;SDS011;3222;48.858;10.128;2024-02-14T03:06:18;3.13;;;2.17;;
6378;SDS011;3222;48.858;10.128;2024-02-14T03:08:45;2.37;;;2.17;;
6378;SDS011;3222;48.858;10.128;2024-02-14T03:11:11;2.47;;;2.13;;
6378;SDS011;3222;48.858;10.128;2024-02-14T03:13:37;2.33;;;2.23;;
6378;SDS011;3222;48.858;10.128;2024-02-14T03:16:05;2.40;;;2.20;;
6378;SDS011;3222;48.858;10.128;2024-02-14T03:18:32;4.20;;;2.37;;
6378;SDS011;3222;48.858;10.128;2024-02-14T03:20:58;2.50;;;1.97;;
6378;SDS011;3222;48.858;10.128;2024-02-14T03:23:23;2.33;;;2.10;;
6378;SDS011;3222;48.858;10.128;2024-02-14T03:25:49;2.50;;;1.90;;
6378;SDS011;3222;48.858;10.128;2024-02-14T03:28:16;2.57;;;2.00;;
6378;SDS011;3222;48.858;10.128;2024-02-14T03:30:42;4.23;;;2.70;;
6378;SDS011;3222;48.858;10.128;2024-02-14T03:33:07;2.90;;;2.17;;
6378;SDS011;3222;48.858;10.128;2024-02-14T03:35:33;4.13;;;2.40;;
6378;SDS011;3222;48.858;10.128;2024-02-14T03:38:02;2.93;;;2.30;;
6378;SDS011;3222;48.858;10.128;2024-02-14T03:40:28;3.73;;;2.17;;
6378;SDS011;3222;48.858;10.128;2024-02-14T03:42:55;3.90;;;2.20;;
6378;SDS011;3222;48.858;10.128;2024-02-14T03:45:22;2.53;;;2.00;;
6378;SDS011;3222;48.858;10.128;2024-02-14T03:47:47;2.60;;;2.00;;
6378;SDS011;3222;48.858;10.128;2024-02-14T03:50:13;2.80;;;2.30;;
6378;SDS011;3222;48.858;10.128;2024-02-14T03:52:40;2.90;;;2.30;;
6378;SDS011;3222;48.858;10.128;2024-02-14T03:55:07;2.13;;;2.00;;
6378;SDS011;3222;48.858;10.128;2024-02-14T03:57:39;2.93;;;2.37;;
6378;SDS011;3222;48.858;10.128;2024-02-14T04:00:05;4.37;;;2.43;;
6378;SDS011;3222;48.858;10.128;2024-02-14T04:02:38;3.97;;;2.40;;
6378;SDS011;3222;48.858;10.128;2024-02-14T04:05:05;3.23;;;2.30;;
6378;SDS011;3222;48.858;10.128;2024-02-14T04:07:32;2.47;;;2.00;;
6378;SDS011;3222;48.858;10.128;2024-02-14T04:09:59;3.83;;;2.53;;
6378;SDS011;3222;48.858;10.128;2024-02-14T04:12:25;5.33;;;2.47;;
6378;SDS011;3222;48.858;10.128;2024-02-14T04:14:50;7.37;;;3.97;;
6378;SDS011;3222;48.858;10.128;2024-02-14T04:17:16;5.57;;;3.00;;
6378;SDS011;3222;48.858;10.128;2024-02-14T04:19:42;3.73;;;2.40;;
6378;SDS011;3222;48.858;10.128;2024-02-14T04:22:07;2.80;;;2.50;;
6378;SDS011;3222;48.858;10.128;2024-02-14T04:24:33;7.33;;;3.33;;
6378;SDS011;3222;48.858;10.128;2024-02-14T04:26:59;3.53;;;3.00;;
6378;SDS011;3222;48.858;10.128;2024-02-14T04:29:27;2.57;;;2.33;;
6378;SDS011;3222;48.858;10.128;2024-02-14T04:31:55;3.47;;;2.30;;
6378;SDS011;3222;48.858;10.128;2024-02-14T04:34:21;5.50;;;2.73;;
6378;SDS011;3222;48.858;10.128;2024-02-14T04:36:47;4.17;;;2.30;;
6378;SDS011;3222;48.858;10.128;2024-02-14T04:39:13;4.47;;;2.10;;
6378;SDS011;3222;48.858;10.128;2024-02-14T04:41:38;3.47;;;2.00;;
6378;SDS011;3222;48.858;10.128;2024-02-14T04:44:04;3.47;;;2.30;;
6378;SDS011;3222;48.858;10.128;2024-02-14T04:46:32;2.40;;;2.20;;
6378;SDS011;3222;48.858;10.128;2024-02-14T04:48:58;2.97;;;2.33;;
6378;SDS011;3222;48.858;10.128;2024-02-14T04:51:23;2.70;;;2.40;;
6378;SDS011;3222;48.858;10.128;2024-02-14T04:53:50;2.67;;;2.17;;
6378;SDS011;3222;48.858;10.128;2024-02-14T04:56:16;3.07;;;2.47;;
6378;SDS011;3222;48.858;10.128;2024-02-14T04:58:41;2.43;;;1.97;;
6378;SDS011;3222;48.858;10.128;2024-02-14T05:01:07;4.00;;;2.33;;
6378;SDS011;3222;48.858;10.128;2024-02-14T05:03:32;3.07;;;2.13;;
6378;SDS011;3222;48.858;10.128;2024-02-14T05:05:58;4.03;;;2.27;;
6378;SDS011;3222;48.858;10.128;2024-02-14T05:08:27;4.13;;;1.93;;
6378;SDS011;3222;48.858;10.128;2024-02-14T05:10:53;2.37;;;2.00;;
6378;SDS011;3222;48.858;10.128;2024-02-14T05:13:19;2.23;;;2.03;;
6378;SDS011;3222;48.858;10.128;2024-02-14T05:15:44;3.00;;;2.10;;
6378;SDS011;3222;48.858;10.128;2024-02-14T05:18:10;3.47;;;2.20;;
6378;SDS011;3222;48.858;10.128;2024-02-14T05:20:35;3.47;;;2.40;;
6378;SDS011;3222;48.858;10.128;2024-02-14T05:23:03;3.57;;;2.00;;
6378;SDS011;3222;48.858;10.128;2024-02-14T05:25:29;4.70;;;2.20;;
6378;SDS011;3222;48.858;10.128;2024-02-14T05:27:54;4.80;;;2.00;;
6378;SDS011;3222;48.858;10.128;2024-02-14T05:30:20;4.30;;;2.60;;
6378;SDS011;3222;48.858;10.128;2024-02-14T05:32:46;2.77;;;2.50;;
6378;SDS011;3222;48.858;10.128;2024-02-14T05:35:11;4.77;;;2.90;;
6378;SDS011;3222;48.858;10.128;2024-02-14T05:37:37;7.17;;;4.53;;
6378;SDS011;3222;48.858;10.128;2024-02-14T05:40:03;6.63;;;4.07;;
6378;SDS011;3222;48.858;10.128;2024-02-14T05:42:31;7.53;;;4.70;;
6378;SDS011;3222;48.858;10.128;2024-02-14T05:44:57;6.90;;;4.23;;
6378;SDS011;3222;48.858;10.128;2024-02-14T05:47:23;4.63;;;3.70;;
6378;SDS011;3222;48.858;10.128;2024-02-14T05:49:50;5.23;;;3.57;;
6378;SDS011;3222;48.858;10.128;2024-02-14T05:52:16;4.70;;;2.80;;
6378;SDS011;3222;48.858;10.128;2024-02-14T05:54:43;3.80;;;3.03;;
6378;SDS011;3222;48.858;10.128;2024-02-14T05:57:09;4.80;;;2.37;;
6378;SDS011;3222;48.858;10.128;2024-02-14T05:59:34;2.53;;;2.13;;
6378;SDS011;3222;48.858;10.128;2024-02-14T06:02:00;3.47;;;2.23;;
6378;SDS011;3222;48.858;10.128;2024-02-14T06:04:28;3.27;;;2.23;;
6378;SDS011;3222;48.858;10.128;2024-02-14T06:06:53;2.47;;;2.20;;
6378;SDS011;3222;48.858;10.128;2024-02-14T06:09:19;2.60;;;2.40;;
6378;SDS011;3222;48.858;10.128;2024-02-14T06:11:45;2.27;;;2.07;;
6378;SDS011;3222;48.858;10.128;2024-02-14T06:14:10;2.57;;;2.37;;
6378;SDS011;3222;48.858;10.128;2024-02-14T06:16:36;4.47;;;2.10;;
6378;SDS011;3222;48.858;10.128;2024-02-14T06:19:02;4.53;;;2.07;;
6378;SDS011;3222;48.858;10.128;2024-02-14T06:21:29;3.73;;;2.20;;
6378;SDS011;3222;48.858;10.128;2024-02-14T06:23:55;5.47;;;2.20;;
6378;SDS011;3222;48.858;10.128;2024-02-14T06:26:23;3.73;;;2.50;;
6378;SDS011;3222;48.858;10.128;2024-02-14T06:28:49;3.03;;;2.30;;
6378;SDS011;3222;48.858;10.128;2024-02-14T06:31:19;2.63;;;2.20;;
6378;SDS011;3222;48.858;10.128;2024-02-14T06:33:46;2.87;;;2.10;;
6378;SDS011;3222;48.858;10.128;2024-02-14T06:36:12;2.77;;;2.10;;
6378;SDS011;3222;48.858;10.128;2024-02-14T06:38:37;2.80;;;2.57;;
6378;SDS011;3222;48.858;10.128;2024-02-14T06:41:03;2.10;;;1.90;;
6378;SDS011;3222;48.858;10.128;2024-02-14T06:43:29;2.43;;;2.10;;
6378;SDS011;3222;48.858;10.128;2024-02-14T06:45:55;4.77;;;2.63;;
6378;SDS011;3222;48.858;10.128;2024-02-14T06:48:21;4.13;;;2.23;;
6378;SDS011;3222;48.858;10.128;2024-02-14T06:50:49;2.60;;;2.10;;
6378;SDS011;3222;48.858;10.128;2024-02-14T06:53:15;3.93;;;2.20;;
6378;SDS011;3222;48.858;10.128;2024-02-14T06:55:40;4.83;;;2.20;;
6378;SDS011;3222;48.858;10.128;2024-02-14T06:58:06;3.40;;;1.97;;
6378;SDS011;3222;48.858;10.128;2024-02-14T07:00:32;3.07;;;2.23;;
6378;SDS011;3222;48.858;10.128;2024-02-14T07:02:58;4.33;;;2.20;;
6378;SDS011;3222;48.858;10.128;2024-02-14T07:05:24;3.00;;;2.10;;
6378;SDS011;3222;48.858;10.128;2024-02-14T07:07:51;5.07;;;2.40;;
6378;SDS011;3222;48.858;10.128;2024-02-14T07:10:16;3.07;;;2.30;;
6378;SDS011;3222;48.858;10.128;2024-02-14T07:12:42;2.70;;;2.50;;
6378;SDS011;3222;48.858;10.128;2024-02-14T07:15:08;2.70;;;2.20;;
6378;SDS011;3222;48.858;10.128;2024-02-14T07:17:33;2.20;;;1.87;;
6378;SDS011;3222;48.858;10.128;2024-02-14T07:19:59;2.80;;;2.17;;
6378;SDS011;3222;48.858;10.128;2024-02-14T07:22:24;2.30;;;2.10;;
6378;SDS011;3222;48.858;10.128;2024-02-14T07:24:50;3.77;;;2.17;;
6378;SDS011;3222;48.858;10.128;2024-02-14T07:27:16;4.00;;;2.10;;
6378;SDS011;3222;48.858;10.128;2024-02-14T07:29:42;2.47;;;2.00;;
6378;SDS011;3222;48.858;10.128;2024-02-14T07:32:08;3.20;;;2.50;;
6378;SDS011;3222;48.858;10.128;2024-02-14T07:34:33;2.93;;;2.13;;
6378;SDS011;3222;48.858;10.128;2024-02-14T07:36:59;4.57;;;2.20;;
6378;SDS011;3222;48.858;10.128;2024-02-14T07:39:25;3.50;;;2.40;;
6378;SDS011;3222;48.858;10.128;2024-02-14T07:41:50;2.90;;;2.20;;
6378;SDS011;3222;48.858;10.128;2024-02-14T07:44:16;3.53;;;2.50;;
6378;SDS011;3222;48.858;10.128;2024-02-14T07:46:42;4.60;;;2.50;;
6378;SDS011;3222;48.858;10.128;2024-02-14T07:49:08;3.57;;;2.60;;
6378;SDS011;3222;48.858;10.128;2024-02-14T07:51:35;2.70;;;2.50;;
6378;SDS011;3222;48.858;10.128;2024-02-14T07:54:03;4.27;;;2.77;;
6378;SDS011;3222;48.858;10.128;2024-02-14T07:56:29;5.60;;;2.90;;
6378;SDS011;3222;48.858;10.128;2024-02-14T07:58:55;3.40;;;2.10;;
6378;SDS011;3222;48.858;10.128;2024-02-14T08:01:20;2.93;;;2.60;;
6378;SDS011;3222;48.858;10.128;2024-02-14T08:03:46;3.53;;;2.40;;
6378;SDS011;3222;48.858;10.128;2024-02-14T08:06:12;5.77;;;2.40;;
6378;SDS011;3222;48.858;10.128;2024-02-14T08:08:38;5.13;;;2.50;;
6378;SDS011;3222;48.858;10.128;2024-02-14T08:11:04;2.53;;;2.30;;
6378;SDS011;3222;48.858;10.128;2024-02-14T08:13:30;6.10;;;2.47;;
6378;SDS011;3222;48.858;10.128;2024-02-14T08:15:55;2.03;;;1.80;;
6378;SDS011;3222;48.858;10.128;2024-02-14T08:18:21;2.33;;;2.00;;
6378;SDS011;3222;48.858;10.128;2024-02-14T08:20:48;3.10;;;2.27;;
6378;SDS011;3222;48.858;10.128;2024-02-14T08:23:13;3.27;;;2.10;;
6378;SDS011;3222;48.858;10.128;2024-02-14T08:25:39;4.70;;;2.07;;
6378;SDS011;3222;48.858;10.128;2024-02-14T08:28:06;3.03;;;2.10;;
6378;SDS011;3222;48.858;10.128;2024-02-14T08:30:33;4.63;;;2.17;;
6378;SDS011;3222;48.858;10.128;2024-02-14T08:32:59;2.30;;;2.00;;
6378;SDS011;3222;48.858;10.128;2024-02-14T08:35:24;5.00;;;2.10;;
6378;SDS011;3222;48.858;10.128;2024-02-14T08:37:50;2.57;;;2.00;;
6378;SDS011;3222;48.858;10.128;2024-02-14T08:40:16;5.17;;;2.50;;
6378;SDS011;3222;48.858;10.128;2024-02-14T08:42:42;3.30;;;2.77;;
6378;SDS011;3222;48.858;10.128;2024-02-14T08:45:07;5.60;;;2.80;;
6378;SDS011;3222;48.858;10.128;2024-02-14T08:47:34;3.37;;;2.37;;
6378;SDS011;3222;48.858;10.128;2024-02-14T08:50:00;2.57;;;2.33;;
6378;SDS011;3222;48.858;10.128;2024-02-14T08:52:25;4.67;;;2.43;;
6378;SDS011;3222;48.858;10.128;2024-02-14T08:54:51;2.40;;;2.20;;
6378;SDS011;3222;48.858;10.128;2024-02-14T08:57:17;2.30;;;2.10;;
6378;SDS011;3222;48.858;10.128;2024-02-14T08:59:44;3.97;;;2.13;;
6378;SDS011;3222;48.858;10.128;2024-02-14T09:02:13;6.40;;;2.23;;
6378;SDS011;3222;48.858;10.128;2024-02-14T09:04:39;2.07;;;1.87;;
6378;SDS011;3222;48.858;10.128;2024-02-14T09:07:09;3.43;;;1.90;;
6378;SDS011;3222;48.858;10.128;2024-02-14T09:09:35;1.90;;;1.80;;
6378;SDS011;3222;48.858;10.128;2024-02-14T09:12:02;2.00;;;1.60;;
6378;SDS011;3222;48.858;10.128;2024-02-14T09:14:29;2.10;;;1.93;;
6378;SDS011;3222;48.858;10.128;2024-02-14T09:16:55;3.70;;;2.00;;
6378;SDS011;3222;48.858;10.128;2024-02-14T09:19:22;1.90;;;1.80;;
6378;SDS011;3222;48.858;10.128;2024-02-14T09:21:48;2.73;;;2.00;;
6378;SDS011;3222;48.858;10.128;2024-02-14T09:24:14;4.30;;;1.77;;
6378;SDS011;3222;48.858;10.128;2024-02-14T09:26:40;3.40;;;1.90;;
6378;SDS011;3222;48.858;10.128;2024-02-14T09:29:05;3.10;;;2.00;;
6378;SDS011;3222;48.858;10.128;2024-02-14T09:31:31;5.57;;;2.30;;
6378;SDS011;3222;48.858;10.128;2024-02-14T09:33:57;1.63;;;1.53;;
6378;SDS011;3222;48.858;10.128;2024-02-14T09:36:23;1.73;;;1.63;;
6378;SDS011;3222;48.858;10.128;2024-02-14T09:38:50;3.10;;;2.10;;
6378;SDS011;3222;48.858;10.128;2024-02-14T09:44:01;4.87;;;2.43;;
6378;SDS011;3222;48.858;10.128;2024-02-14T09:46:28;2.87;;;2.20;;
6378;SDS011;3222;48.858;10.128;2024-02-14T09:48:55;3.93;;;2.23;;
6378;SDS011;3222;48.858;10.128;2024-02-14T09:51:24;3.63;;;2.33;;
6378;SDS011;3222;48.858;10.128;2024-02-14T09:53:50;3.77;;;1.77;;
6378;SDS011;3222;48.858;10.128;2024-02-14T09:56:19;3.13;;;2.30;;
6378;SDS011;3222;48.858;10.128;2024-02-14T09:58:49;3.63;;;2.30;;
6378;SDS011;3222;48.858;10.128;2024-02-14T10:01:21;1.97;;;1.80;;
6378;SDS011;3222;48.858;10.128;2024-02-14T10:03:51;2.60;;;2.40;;
6378;SDS011;3222;48.858;10.128;2024-02-14T10:06:17;7.10;;;2.20;;
6378;SDS011;3222;48.858;10.128;2024-02-14T10:08:47;3.33;;;2.43;;
6378;SDS011;3222;48.858;10.128;2024-02-14T10:11:16;5.17;;;2.17;;
6378;SDS011;3222;48.858;10.128;2024-02-14T10:13:49;3.83;;;1.80;;
6378;SDS011;3222;48.858;10.128;2024-02-14T10:16:17;3.60;;;1.97;;
6378;SDS011;3222;48.858;10.128;2024-02-14T10:18:44;4.10;;;2.03;;
6378;SDS011;3222;48.858;10.128;2024-02-14T10:21:14;3.03;;;1.80;;
6378;SDS011;3222;48.858;10.128;2024-02-14T10:23:44;2.70;;;2.40;;
6378;SDS011;3222;48.858;10.128;2024-02-14T10:26:12;3.00;;;2.27;;
6378;SDS011;3222;48.858;10.128;2024-02-14T10:28:42;2.57;;;2.40;;
6378;SDS011;3222;48.858;10.128;2024-02-14T10:31:09;5.10;;;2.70;;
6378;SDS011;3222;48.858;10.128;2024-02-14T10:33:35;3.07;;;2.40;;
6378;SDS011;3222;48.858;10.128;2024-02-14T10:36:02;3.53;;;2.47;;
6378;SDS011;3222;48.858;10.128;2024-02-14T10:38:31;4.00;;;2.40;;
6378;SDS011;3222;48.858;10.128;2024-02-14T10:40:58;3.50;;;2.70;;
6378;SDS011;3222;48.858;10.128;2024-02-14T10:43:25;3.40;;;2.20;;
6378;SDS011;3222;48.858;10.128;2024-02-14T10:45:54;2.23;;;1.97;;
6378;SDS011;3222;48.858;10.128;2024-02-14T10:48:23;4.23;;;2.13;;
6378;SDS011;3222;48.858;10.128;2024-02-14T10:50:52;3.00;;;2.00;;
6378;SDS011;3222;48.858;10.128;2024-02-14T10:53:19;2.37;;;1.90;;
6378;SDS011;3222;48.858;10.128;2024-02-14T10:55:46;2.30;;;2.10;;
6378;SDS011;3222;48.858;10.128;2024-02-14T10:58:14;4.23;;;2.20;;
6378;SDS011;3222;48.858;10.128;2024-02-14T11:00:42;4.20;;;2.20;;
6378;SDS011;3222;48.858;10.128;2024-02-14T11:03:09;3.40;;;2.53;;
6378;SDS011;3222;48.858;10.128;2024-02-14T11:05:48;2.93;;;2.53;;
6378;SDS011;3222;48.858;10.128;2024-02-14T11:08:15;1.77;;;1.67;;
6378;SDS011;3222;48.858;10.128;2024-02-14T11:10:55;2.33;;;2.10;;
6378;SDS011;3222;48.858;10.128;2024-02-14T11:13:21;4.03;;;2.40;;
6378;SDS011;3222;48.858;10.128;2024-02-14T11:15:56;3.07;;;2.63;;
6378;SDS011;3222;48.858;10.128;2024-02-14T11:18:28;2.47;;;2.10;;
6378;SDS011;3222;48.858;10.128;2024-02-14T11:20:58;2.63;;;2.27;;
6378;SDS011;3222;48.858;10.128;2024-02-14T11:23:24;4.37;;;2.30;;
6378;SDS011;3222;48.858;10.128;2024-02-14T11:25:58;2.73;;;2.00;;
6378;SDS011;3222;48.858;10.128;2024-02-14T11:28:36;6.80;;;2.17;;
6378;SDS011;3222;48.858;10.128;2024-02-14T11:31:04;2.17;;;2.00;;
6378;SDS011;3222;48.858;10.128;2024-02-14T11:33:34;2.67;;;1.90;;
6378;SDS011;3222;48.858;10.128;2024-02-14T11:36:01;3.23;;;2.10;;
6378;SDS011;3222;48.858;10.128;2024-02-14T11:38:36;3.00;;;2.10;;
6378;SDS011;3222;48.858;10.128;2024-02-14T11:41:02;3.33;;;2.53;;
6378;SDS011;3222;48.858;10.128;2024-02-14T11:43:28;3.83;;;1.93;;
6378;SDS011;3222;48.858;10.128;2024-02-14T11:45:54;3.07;;;2.13;;
6378;SDS011;3222;48.858;10.128;2024-02-14T11:48:20;3.90;;;2.10;;
6378;SDS011;3222;48.858;10.128;2024-02-14T11:50:48;3.17;;;2.20;;
6378;SDS011;3222;48.858;10.128;2024-02-14T11:53:16;2.27;;;2.03;;
6378;SDS011;3222;48.858;10.128;2024-02-14T11:55:44;2.33;;;2.13;;
6378;SDS011;3222;48.858;10.128;2024-02-14T11:58:12;2.00;;;1.80;;
6378;SDS011;3222;48.858;10.128;2024-02-14T12:00:44;1.97;;;1.80;;
6378;SDS011;3222;48.858;10.128;2024-02-14T12:03:11;3.17;;;2.10;;
6378;SDS011;3222;48.858;10.128;2024-02-14T12:05:38;2.67;;;1.80;;
6378;SDS011;3222;48.858;10.128;2024-02-14T12:08:05;2.53;;;1.63;;
6378;SDS011;3222;48.858;10.128;2024-02-14T12:10:32;4.40;;;1.93;;
6378;SDS011;3222;48.858;10.128;2024-02-14T12:12:58;2.30;;;2.10;;
6378;SDS011;3222;48.858;10.128;2024-02-14T12:15:29;2.03;;;1.83;;
6378;SDS011;3222;48.858;10.128;2024-02-14T12:17:55;4.80;;;2.23;;
6378;SDS011;3222;48.858;10.128;2024-02-14T12:20:22;3.07;;;2.07;;
6378;SDS011;3222;48.858;10.128;2024-02-14T12:22:51;2.90;;;2.17;;
6378;SDS011;3222;48.858;10.128;2024-02-14T12:25:17;2.00;;;1.80;;
6378;SDS011;3222;48.858;10.128;2024-02-14T12:27:49;2.50;;;2.17;;
6378;SDS011;3222;48.858;10.128;2024-02-14T12:30:17;3.20;;;2.70;;
6378;SDS011;3222;48.858;10.128;2024-02-14T12:32:43;2.87;;;2.27;;
6378;SDS011;3222;48.858;10.128;2024-02-14T12:35:09;3.53;;;2.50;;
6378;SDS011;3222;48.858;10.128;2024-02-14T12:37:35;2.97;;;2.00;;
6378;SDS011;3222;48.858;10.128;2024-02-14T12:40:01;2.60;;;1.80;;
6378;SDS011;3222;48.858;10.128;2024-02-14T12:42:27;2.40;;;1.83;;
6378;SDS011;3222;48.858;10.128;2024-02-14T12:44:56;1.60;;;1.50;;
6378;SDS011;3222;48.858;10.128;2024-02-14T12:47:22;2.63;;;1.70;;
6378;SDS011;3222;48.858;10.128;2024-02-14T12:49:48;2.30;;;1.87;;
6378;SDS011;3222;48.858;10.128;2024-02-14T12:52:16;2.20;;;2.00;;
6378;SDS011;3222;48.858;10.128;2024-02-14T12:54:43;2.20;;;2.00;;
6378;SDS011;3222;48.858;10.128;2024-02-14T12:57:14;3.93;;;1.93;;
6378;SDS011;3222;48.858;10.128;2024-02-14T12:59:39;3.30;;;1.80;;
6378;SDS011;3222;48.858;10.128;2024-02-14T13:02:05;4.77;;;1.90;;
6378;SDS011;3222;48.858;10.128;2024-02-14T13:04:31;3.47;;;2.30;;
6378;SDS011;3222;48.858;10.128;2024-02-14T13:06:57;2.97;;;1.83;;
6378;SDS011;3222;48.858;10.128;2024-02-14T13:09:23;2.07;;;1.83;;
6378;SDS011;3222;48.858;10.128;2024-02-14T13:11:49;2.17;;;1.93;;
6378;SDS011;3222;48.858;10.128;2024-02-14T13:14:14;2.30;;;1.90;;
6378;SDS011;3222;48.858;10.128;2024-02-14T13:16:40;2.37;;;2.03;;
6378;SDS011;3222;48.858;10.128;2024-02-14T13:19:06;2.67;;;2.10;;
6378;SDS011;3222;48.858;10.128;2024-02-14T13:21:32;2.73;;;2.10;;
6378;SDS011;3222;48.858;10.128;2024-02-14T13:23:58;2.90;;;1.73;;
6378;SDS011;3222;48.858;10.128;2024-02-14T13:26:24;1.70;;;1.60;;
6378;SDS011;3222;48.858;10.128;2024-02-14T13:28:50;2.90;;;1.80;;
6378;SDS011;3222;48.858;10.128;2024-02-14T13:31:16;1.73;;;1.63;;
6378;SDS011;3222;48.858;10.128;2024-02-14T13:33:42;1.90;;;1.70;;
6378;SDS011;3222;48.858;10.128;2024-02-14T13:36:07;2.23;;;2.00;;
6378;SDS011;3222;48.858;10.128;2024-02-14T13:38:33;2.73;;;2.30;;
6378;SDS011;3222;48.858;10.128;2024-02-14T13:40:59;3.93;;;2.20;;
6378;SDS011;3222;48.858;10.128;2024-02-14T13:43:25;2.67;;;2.10;;
6378;SDS011;3222;48.858;10.128;2024-02-14T13:45:50;4.20;;;2.17;;
6378;SDS011;3222;48.858;10.128;2024-02-14T13:48:16;3.53;;;2.27;;
6378;SDS011;3222;48.858;10.128;2024-02-14T13:50:42;2.53;;;1.90;;
6378;SDS011;3222;48.858;10.128;2024-02-14T13:53:08;2.67;;;2.10;;
6378;SDS011;3222;48.858;10.128;2024-02-14T13:55:33;3.57;;;2.23;;
6378;SDS011;3222;48.858;10.128;2024-02-14T13:57:59;3.10;;;2.10;;
6378;SDS011;3222;48.858;10.128;2024-02-14T14:00:25;1.60;;;1.50;;
6378;SDS011;3222;48.858;10.128;2024-02-14T14:02:51;2.77;;;1.77;;
6378;SDS011;3222;48.858;10.128;2024-02-14T14:05:16;1.57;;;1.47;;
6378;SDS011;3222;48.858;10.128;2024-02-14T14:07:42;1.80;;;1.70;;
6378;SDS011;3222;48.858;10.128;2024-02-14T14:10:08;2.03;;;1.50;;
6378;SDS011;3222;48.858;10.128;2024-02-14T14:12:34;2.73;;;2.00;;
6378;SDS011;3222;48.858;10.128;2024-02-14T14:15:00;2.47;;;1.93;;
6378;SDS011;3222;48.858;10.128;2024-02-14T14:17:26;2.07;;;1.87;;
6378;SDS011;3222;48.858;10.128;2024-02-14T14:19:52;1.93;;;1.70;;
6378;SDS011;3222;48.858;10.128;2024-02-14T14:22:18;3.27;;;2.33;;
6378;SDS011;3222;48.858;10.128;2024-02-14T14:24:44;2.17;;;1.80;;
6378;SDS011;3222;48.858;10.128;2024-02-14T14:27:10;2.50;;;1.93;;
6378;SDS011;3222;48.858;10.128;2024-02-14T14:29:39;2.80;;;1.70;;
6378;SDS011;3222;48.858;10.128;2024-02-14T14:32:08;2.17;;;1.83;;
6378;SDS011;3222;48.858;10.128;2024-02-14T14:34:34;2.30;;;1.70;;
6378;SDS011;3222;48.858;10.128;2024-02-14T14:37:00;2.17;;;1.80;;
6378;SDS011;3222;48.858;10.128;2024-02-14T14:39:26;2.50;;;1.77;;
6378;SDS011;3222;48.858;10.128;2024-02-14T14:41:52;2.70;;;1.80;;
6378;SDS011;3222;48.858;10.128;2024-02-14T14:44:26;2.03;;;1.83;;
6378;SDS011;3222;48.858;10.128;2024-02-14T14:46:55;1.60;;;1.50;;
6378;SDS011;3222;48.858;10.128;2024-02-14T14:49:21;1.47;;;1.40;;
6378;SDS011;3222;48.858;10.128;2024-02-14T14:51:47;1.80;;;1.47;;
6378;SDS011;3222;48.858;10.128;2024-02-14T14:54:13;1.97;;;1.50;;
6378;SDS011;3222;48.858;10.128;2024-02-14T14:56:38;1.60;;;1.50;;
6378;SDS011;3222;48.858;10.128;2024-02-14T14:59:04;2.77;;;1.50;;
6378;SDS011;3222;48.858;10.128;2024-02-14T15:01:31;1.77;;;1.50;;
6378;SDS011;3222;48.858;10.128;2024-02-14T15:04:00;1.73;;;1.63;;